Terminal Aerodrome Forecast
Issued by NWS

Home | Current Version | Previous Version | Text Only | Print | Product List | Glossary On
Versions: 1 2 3 4 5 6 7 8 9 10 11 12 13 14 15 16 17 18 19 20 21 22 23
000
FTUS44 KBMX 050900 AAB
TAFEET
TAF AMD
KEET 050910Z 0509/0606 34008KT 4SM BR OVC003
      TEMPO 0511/0515 4SM -RA OVC007
     FM051500 33010KT 4SM -RA BR OVC007
     FM051900 34011G17KT 6SM -DZ SCT005 OVC015
     FM052300 35008KT P6SM BKN050=

USA.gov is the U.S. government's official web portal to all federal, state and local government web resources and services.